sensor_id;sensor_type;location;lat;lon;timestamp;P1;durP1;ratioP1;P2;durP2;ratioP2
29908;SDS011;36247;51.952;6.146;2023-06-24T00:01:15;17.08;;;12.32;;
29908;SDS011;36247;51.952;6.146;2023-06-24T00:03:41;15.75;;;12.32;;
29908;SDS011;36247;51.952;6.146;2023-06-24T00:06:11;16.10;;;12.10;;
29908;SDS011;36247;51.952;6.146;2023-06-24T00:08:46;14.82;;;11.77;;
29908;SDS011;36247;51.952;6.146;2023-06-24T00:11:12;13.52;;;11.82;;
29908;SDS011;36247;51.952;6.146;2023-06-24T00:13:43;16.20;;;12.40;;
29908;SDS011;36247;51.952;6.146;2023-06-24T00:16:11;14.60;;;12.75;;
29908;SDS011;36247;51.952;6.146;2023-06-24T00:18:37;13.93;;;12.10;;
29908;SDS011;36247;51.952;6.146;2023-06-24T00:21:06;16.65;;;14.00;;
29908;SDS011;36247;51.952;6.146;2023-06-24T00:23:32;14.18;;;12.52;;
29908;SDS011;36247;51.952;6.146;2023-06-24T00:26:01;14.02;;;12.05;;
29908;SDS011;36247;51.952;6.146;2023-06-24T00:28:27;17.38;;;12.50;;
29908;SDS011;36247;51.952;6.146;2023-06-24T00:30:52;14.13;;;11.23;;
29908;SDS011;36247;51.952;6.146;2023-06-24T00:33:18;13.75;;;12.32;;
29908;SDS011;36247;51.952;6.146;2023-06-24T00:35:47;17.05;;;13.23;;
29908;SDS011;36247;51.952;6.146;2023-06-24T00:38:14;12.85;;;11.50;;
29908;SDS011;36247;51.952;6.146;2023-06-24T00:40:41;15.77;;;12.35;;
29908;SDS011;36247;51.952;6.146;2023-06-24T00:43:07;14.95;;;13.40;;
29908;SDS011;36247;51.952;6.146;2023-06-24T00:45:36;15.30;;;12.52;;
29908;SDS011;36247;51.952;6.146;2023-06-24T00:48:02;16.23;;;13.15;;
29908;SDS011;36247;51.952;6.146;2023-06-24T00:50:28;17.17;;;13.10;;
29908;SDS011;36247;51.952;6.146;2023-06-24T00:52:54;15.38;;;12.63;;
29908;SDS011;36247;51.952;6.146;2023-06-24T00:55:19;15.75;;;12.85;;
29908;SDS011;36247;51.952;6.146;2023-06-24T00:57:46;14.23;;;12.68;;
29908;SDS011;36247;51.952;6.146;2023-06-24T01:00:19;12.90;;;11.55;;
29908;SDS011;36247;51.952;6.146;2023-06-24T01:02:47;14.32;;;12.48;;
29908;SDS011;36247;51.952;6.146;2023-06-24T01:05:14;16.10;;;12.30;;
29908;SDS011;36247;51.952;6.146;2023-06-24T01:07:42;13.32;;;11.93;;
29908;SDS011;36247;51.952;6.146;2023-06-24T01:10:08;15.40;;;13.25;;
29908;SDS011;36247;51.952;6.146;2023-06-24T01:12:38;16.00;;;13.63;;
29908;SDS011;36247;51.952;6.146;2023-06-24T01:15:10;15.80;;;12.52;;
29908;SDS011;36247;51.952;6.146;2023-06-24T01:17:55;13.95;;;12.02;;
29908;SDS011;36247;51.952;6.146;2023-06-24T01:20:36;12.85;;;11.45;;
29908;SDS011;36247;51.952;6.146;2023-06-24T01:31:23;13.98;;;12.55;;
29908;SDS011;36247;51.952;6.146;2023-06-24T01:34:08;14.43;;;11.98;;
29908;SDS011;36247;51.952;6.146;2023-06-24T01:36:42;16.88;;;13.32;;
29908;SDS011;36247;51.952;6.146;2023-06-24T01:39:12;14.80;;;12.95;;
29908;SDS011;36247;51.952;6.146;2023-06-24T01:41:45;14.40;;;12.23;;
29908;SDS011;36247;51.952;6.146;2023-06-24T01:44:16;18.30;;;13.90;;
29908;SDS011;36247;51.952;6.146;2023-06-24T01:46:44;14.90;;;13.27;;
29908;SDS011;36247;51.952;6.146;2023-06-24T01:49:14;15.52;;;13.27;;
29908;SDS011;36247;51.952;6.146;2023-06-24T01:51:41;15.70;;;13.02;;
29908;SDS011;36247;51.952;6.146;2023-06-24T01:54:15;17.50;;;13.50;;
29908;SDS011;36247;51.952;6.146;2023-06-24T01:59:13;15.63;;;13.93;;
29908;SDS011;36247;51.952;6.146;2023-06-24T02:01:42;15.07;;;13.25;;
29908;SDS011;36247;51.952;6.146;2023-06-24T02:04:14;15.82;;;13.48;;
29908;SDS011;36247;51.952;6.146;2023-06-24T02:06:41;16.88;;;13.35;;
29908;SDS011;36247;51.952;6.146;2023-06-24T02:09:16;17.75;;;14.40;;
29908;SDS011;36247;51.952;6.146;2023-06-24T02:11:44;17.10;;;15.30;;
29908;SDS011;36247;51.952;6.146;2023-06-24T02:14:11;20.27;;;14.48;;
29908;SDS011;36247;51.952;6.146;2023-06-24T02:16:41;14.80;;;13.02;;
29908;SDS011;36247;51.952;6.146;2023-06-24T02:19:10;20.30;;;15.05;;
29908;SDS011;36247;51.952;6.146;2023-06-24T02:21:38;16.63;;;14.02;;
29908;SDS011;36247;51.952;6.146;2023-06-24T02:24:10;14.27;;;12.77;;
29908;SDS011;36247;51.952;6.146;2023-06-24T02:26:37;16.58;;;13.73;;
29908;SDS011;36247;51.952;6.146;2023-06-24T02:29:08;16.75;;;13.50;;
29908;SDS011;36247;51.952;6.146;2023-06-24T02:31:38;15.75;;;12.82;;
29908;SDS011;36247;51.952;6.146;2023-06-24T02:34:05;17.20;;;14.13;;
29908;SDS011;36247;51.952;6.146;2023-06-24T02:36:31;23.73;;;15.77;;
29908;SDS011;36247;51.952;6.146;2023-06-24T02:38:57;17.88;;;15.43;;
29908;SDS011;36247;51.952;6.146;2023-06-24T02:41:23;19.75;;;16.98;;
29908;SDS011;36247;51.952;6.146;2023-06-24T02:43:48;21.52;;;16.90;;
29908;SDS011;36247;51.952;6.146;2023-06-24T02:46:14;22.13;;;16.52;;
29908;SDS011;36247;51.952;6.146;2023-06-24T02:48:42;20.83;;;17.77;;
29908;SDS011;36247;51.952;6.146;2023-06-24T02:51:11;21.08;;;17.67;;
29908;SDS011;36247;51.952;6.146;2023-06-24T02:53:38;24.88;;;19.17;;
29908;SDS011;36247;51.952;6.146;2023-06-24T02:56:12;20.00;;;16.38;;
29908;SDS011;36247;51.952;6.146;2023-06-24T02:58:42;25.00;;;17.77;;
29908;SDS011;36247;51.952;6.146;2023-06-24T03:01:18;22.83;;;17.30;;
29908;SDS011;36247;51.952;6.146;2023-06-24T03:03:51;21.73;;;18.15;;
29908;SDS011;36247;51.952;6.146;2023-06-24T03:06:19;23.02;;;17.95;;
29908;SDS011;36247;51.952;6.146;2023-06-24T03:08:47;24.00;;;17.73;;
29908;SDS011;36247;51.952;6.146;2023-06-24T03:11:16;22.35;;;17.60;;
29908;SDS011;36247;51.952;6.146;2023-06-24T03:13:42;23.98;;;18.73;;
29908;SDS011;36247;51.952;6.146;2023-06-24T03:16:35;21.55;;;18.50;;
29908;SDS011;36247;51.952;6.146;2023-06-24T03:19:12;16.23;;;13.73;;
29908;SDS011;36247;51.952;6.146;2023-06-24T03:21:37;17.10;;;14.90;;
29908;SDS011;36247;51.952;6.146;2023-06-24T03:24:07;20.42;;;15.43;;
29908;SDS011;36247;51.952;6.146;2023-06-24T03:26:34;20.23;;;17.67;;
29908;SDS011;36247;51.952;6.146;2023-06-24T03:29:07;24.83;;;18.77;;
29908;SDS011;36247;51.952;6.146;2023-06-24T03:31:33;24.85;;;19.02;;
29908;SDS011;36247;51.952;6.146;2023-06-24T03:33:59;23.75;;;18.15;;
29908;SDS011;36247;51.952;6.146;2023-06-24T03:36:26;21.23;;;17.38;;
29908;SDS011;36247;51.952;6.146;2023-06-24T03:38:51;21.10;;;14.70;;
29908;SDS011;36247;51.952;6.146;2023-06-24T03:41:17;17.90;;;14.93;;
29908;SDS011;36247;51.952;6.146;2023-06-24T03:43:43;19.13;;;16.48;;
29908;SDS011;36247;51.952;6.146;2023-06-24T03:46:13;21.52;;;17.48;;
29908;SDS011;36247;51.952;6.146;2023-06-24T03:48:42;19.83;;;16.60;;
29908;SDS011;36247;51.952;6.146;2023-06-24T03:51:08;21.80;;;16.83;;
29908;SDS011;36247;51.952;6.146;2023-06-24T03:53:36;19.67;;;16.83;;
29908;SDS011;36247;51.952;6.146;2023-06-24T03:56:02;20.58;;;16.63;;
29908;SDS011;36247;51.952;6.146;2023-06-24T03:58:28;19.17;;;15.15;;
29908;SDS011;36247;51.952;6.146;2023-06-24T04:00:53;25.90;;;16.52;;
29908;SDS011;36247;51.952;6.146;2023-06-24T04:03:22;20.50;;;17.23;;
29908;SDS011;36247;51.952;6.146;2023-06-24T04:05:51;22.20;;;15.65;;
29908;SDS011;36247;51.952;6.146;2023-06-24T04:08:20;19.65;;;15.45;;
29908;SDS011;36247;51.952;6.146;2023-06-24T04:10:46;18.48;;;14.80;;
29908;SDS011;36247;51.952;6.146;2023-06-24T04:13:12;22.17;;;15.75;;
29908;SDS011;36247;51.952;6.146;2023-06-24T04:15:38;20.85;;;16.45;;
29908;SDS011;36247;51.952;6.146;2023-06-24T04:18:08;20.42;;;16.33;;
29908;SDS011;36247;51.952;6.146;2023-06-24T04:20:37;19.27;;;15.82;;
29908;SDS011;36247;51.952;6.146;2023-06-24T04:23:03;22.58;;;16.20;;
29908;SDS011;36247;51.952;6.146;2023-06-24T04:25:31;18.17;;;16.23;;
29908;SDS011;36247;51.952;6.146;2023-06-24T04:27:57;20.25;;;16.17;;
29908;SDS011;36247;51.952;6.146;2023-06-24T04:30:22;20.65;;;16.20;;
29908;SDS011;36247;51.952;6.146;2023-06-24T04:32:49;23.08;;;16.42;;
29908;SDS011;36247;51.952;6.146;2023-06-24T04:35:15;21.63;;;16.75;;
29908;SDS011;36247;51.952;6.146;2023-06-24T04:37:44;21.80;;;15.52;;
29908;SDS011;36247;51.952;6.146;2023-06-24T04:40:11;22.70;;;16.35;;
29908;SDS011;36247;51.952;6.146;2023-06-24T04:42:43;19.02;;;16.02;;
29908;SDS011;36247;51.952;6.146;2023-06-24T04:45:13;22.45;;;16.08;;
29908;SDS011;36247;51.952;6.146;2023-06-24T04:47:42;25.35;;;17.15;;
29908;SDS011;36247;51.952;6.146;2023-06-24T04:50:08;23.08;;;17.48;;
29908;SDS011;36247;51.952;6.146;2023-06-24T04:52:38;21.77;;;17.38;;
29908;SDS011;36247;51.952;6.146;2023-06-24T04:55:11;22.35;;;16.50;;
29908;SDS011;36247;51.952;6.146;2023-06-24T04:57:37;25.67;;;17.20;;
29908;SDS011;36247;51.952;6.146;2023-06-24T05:00:03;20.95;;;17.13;;
29908;SDS011;36247;51.952;6.146;2023-06-24T05:02:29;19.77;;;16.65;;
29908;SDS011;36247;51.952;6.146;2023-06-24T05:04:55;20.58;;;17.45;;
29908;SDS011;36247;51.952;6.146;2023-06-24T05:07:20;22.35;;;17.05;;
29908;SDS011;36247;51.952;6.146;2023-06-24T05:09:46;24.73;;;17.50;;
29908;SDS011;36247;51.952;6.146;2023-06-24T05:12:13;22.17;;;17.75;;
29908;SDS011;36247;51.952;6.146;2023-06-24T05:14:41;20.90;;;17.85;;
29908;SDS011;36247;51.952;6.146;2023-06-24T05:17:07;22.05;;;18.15;;
29908;SDS011;36247;51.952;6.146;2023-06-24T05:19:33;24.90;;;19.08;;
29908;SDS011;36247;51.952;6.146;2023-06-24T05:21:58;21.27;;;18.10;;
29908;SDS011;36247;51.952;6.146;2023-06-24T05:24:24;22.85;;;17.85;;
29908;SDS011;36247;51.952;6.146;2023-06-24T05:26:50;26.60;;;19.35;;
29908;SDS011;36247;51.952;6.146;2023-06-24T05:29:16;26.67;;;19.17;;
29908;SDS011;36247;51.952;6.146;2023-06-24T05:31:43;23.27;;;18.63;;
29908;SDS011;36247;51.952;6.146;2023-06-24T05:34:11;25.95;;;18.88;;
29908;SDS011;36247;51.952;6.146;2023-06-24T05:36:37;29.00;;;20.90;;
29908;SDS011;36247;51.952;6.146;2023-06-24T05:39:02;26.35;;;20.60;;
29908;SDS011;36247;51.952;6.146;2023-06-24T05:41:28;23.50;;;19.15;;
29908;SDS011;36247;51.952;6.146;2023-06-24T05:44:03;25.75;;;20.50;;
29908;SDS011;36247;51.952;6.146;2023-06-24T05:46:30;23.50;;;18.08;;
29908;SDS011;36247;51.952;6.146;2023-06-24T05:48:56;24.98;;;18.80;;
29908;SDS011;36247;51.952;6.146;2023-06-24T05:51:21;21.10;;;16.25;;
29908;SDS011;36247;51.952;6.146;2023-06-24T05:53:47;24.65;;;16.25;;
29908;SDS011;36247;51.952;6.146;2023-06-24T05:56:13;21.95;;;15.32;;
29908;SDS011;36247;51.952;6.146;2023-06-24T05:58:38;22.40;;;16.10;;
29908;SDS011;36247;51.952;6.146;2023-06-24T06:01:09;20.17;;;15.13;;
29908;SDS011;36247;51.952;6.146;2023-06-24T06:03:37;24.45;;;15.88;;
29908;SDS011;36247;51.952;6.146;2023-06-24T06:06:03;20.13;;;14.18;;
29908;SDS011;36247;51.952;6.146;2023-06-24T06:08:29;16.70;;;13.32;;
29908;SDS011;36247;51.952;6.146;2023-06-24T06:10:54;18.38;;;13.13;;
29908;SDS011;36247;51.952;6.146;2023-06-24T06:13:20;14.35;;;9.23;;
29908;SDS011;36247;51.952;6.146;2023-06-24T06:15:45;15.00;;;8.93;;
29908;SDS011;36247;51.952;6.146;2023-06-24T06:18:11;12.00;;;8.45;;
29908;SDS011;36247;51.952;6.146;2023-06-24T06:20:37;15.10;;;8.85;;
29908;SDS011;36247;51.952;6.146;2023-06-24T06:23:02;12.88;;;9.85;;
29908;SDS011;36247;51.952;6.146;2023-06-24T06:25:28;14.80;;;10.25;;
29908;SDS011;36247;51.952;6.146;2023-06-24T06:27:54;14.90;;;9.77;;
29908;SDS011;36247;51.952;6.146;2023-06-24T06:30:19;14.10;;;9.65;;
29908;SDS011;36247;51.952;6.146;2023-06-24T06:32:45;13.30;;;9.52;;
29908;SDS011;36247;51.952;6.146;2023-06-24T06:35:12;12.38;;;8.57;;
29908;SDS011;36247;51.952;6.146;2023-06-24T06:37:37;13.00;;;8.45;;
29908;SDS011;36247;51.952;6.146;2023-06-24T06:40:03;13.15;;;8.00;;
29908;SDS011;36247;51.952;6.146;2023-06-24T06:42:29;12.20;;;7.82;;
29908;SDS011;36247;51.952;6.146;2023-06-24T06:44:55;10.05;;;7.70;;
29908;SDS011;36247;51.952;6.146;2023-06-24T06:47:20;9.75;;;8.05;;
29908;SDS011;36247;51.952;6.146;2023-06-24T06:49:46;10.73;;;7.90;;
29908;SDS011;36247;51.952;6.146;2023-06-24T06:52:12;12.60;;;8.27;;
29908;SDS011;36247;51.952;6.146;2023-06-24T06:54:37;15.73;;;9.10;;
29908;SDS011;36247;51.952;6.146;2023-06-24T06:57:03;12.70;;;8.40;;
29908;SDS011;36247;51.952;6.146;2023-06-24T06:59:32;11.88;;;8.40;;
29908;SDS011;36247;51.952;6.146;2023-06-24T07:01:58;16.77;;;9.05;;
29908;SDS011;36247;51.952;6.146;2023-06-24T07:04:24;12.68;;;9.63;;
29908;SDS011;36247;51.952;6.146;2023-06-24T07:06:49;16.67;;;8.55;;
29908;SDS011;36247;51.952;6.146;2023-06-24T07:09:15;12.70;;;8.45;;
29908;SDS011;36247;51.952;6.146;2023-06-24T07:11:44;13.23;;;10.00;;
29908;SDS011;36247;51.952;6.146;2023-06-24T07:14:10;15.30;;;8.93;;
29908;SDS011;36247;51.952;6.146;2023-06-24T07:16:37;15.77;;;8.05;;
29908;SDS011;36247;51.952;6.146;2023-06-24T07:19:03;9.82;;;7.80;;
29908;SDS011;36247;51.952;6.146;2023-06-24T07:21:28;10.65;;;7.30;;
29908;SDS011;36247;51.952;6.146;2023-06-24T07:23:54;11.38;;;6.07;;
29908;SDS011;36247;51.952;6.146;2023-06-24T07:26:20;7.40;;;5.18;;
29908;SDS011;36247;51.952;6.146;2023-06-24T07:28:46;8.48;;;5.60;;
29908;SDS011;36247;51.952;6.146;2023-06-24T07:31:11;8.63;;;6.25;;
29908;SDS011;36247;51.952;6.146;2023-06-24T07:33:37;9.05;;;6.45;;
29908;SDS011;36247;51.952;6.146;2023-06-24T07:36:03;9.63;;;6.47;;
29908;SDS011;36247;51.952;6.146;2023-06-24T07:38:29;9.32;;;6.35;;
29908;SDS011;36247;51.952;6.146;2023-06-24T07:40:55;8.93;;;6.47;;
29908;SDS011;36247;51.952;6.146;2023-06-24T07:43:21;11.13;;;6.07;;
29908;SDS011;36247;51.952;6.146;2023-06-24T07:45:46;10.75;;;6.68;;
29908;SDS011;36247;51.952;6.146;2023-06-24T07:48:12;8.80;;;5.85;;
29908;SDS011;36247;51.952;6.146;2023-06-24T07:50:40;8.98;;;5.45;;
29908;SDS011;36247;51.952;6.146;2023-06-24T07:53:07;10.43;;;6.35;;
29908;SDS011;36247;51.952;6.146;2023-06-24T07:55:33;8.07;;;6.15;;
29908;SDS011;36247;51.952;6.146;2023-06-24T07:57:59;10.07;;;7.03;;
29908;SDS011;36247;51.952;6.146;2023-06-24T08:00:24;10.23;;;6.60;;
29908;SDS011;36247;51.952;6.146;2023-06-24T08:02:50;9.13;;;6.55;;
29908;SDS011;36247;51.952;6.146;2023-06-24T08:05:16;10.13;;;6.60;;
29908;SDS011;36247;51.952;6.146;2023-06-24T08:07:43;9.13;;;7.28;;
29908;SDS011;36247;51.952;6.146;2023-06-24T08:10:12;13.02;;;7.45;;
29908;SDS011;36247;51.952;6.146;2023-06-24T08:12:38;10.85;;;7.28;;
29908;SDS011;36247;51.952;6.146;2023-06-24T08:15:03;10.70;;;6.60;;
29908;SDS011;36247;51.952;6.146;2023-06-24T08:17:29;8.23;;;6.30;;
29908;SDS011;36247;51.952;6.146;2023-06-24T08:19:55;8.75;;;7.07;;
29908;SDS011;36247;51.952;6.146;2023-06-24T08:22:20;10.95;;;8.18;;
29908;SDS011;36247;51.952;6.146;2023-06-24T08:24:46;11.02;;;7.30;;
29908;SDS011;36247;51.952;6.146;2023-06-24T08:27:12;8.98;;;6.22;;
29908;SDS011;36247;51.952;6.146;2023-06-24T08:29:37;8.32;;;6.57;;
29908;SDS011;36247;51.952;6.146;2023-06-24T08:32:03;13.23;;;7.20;;
29908;SDS011;36247;51.952;6.146;2023-06-24T08:34:32;9.27;;;7.38;;
29908;SDS011;36247;51.952;6.146;2023-06-24T08:36:58;10.25;;;6.60;;
29908;SDS011;36247;51.952;6.146;2023-06-24T08:39:24;9.88;;;6.10;;
29908;SDS011;36247;51.952;6.146;2023-06-24T08:41:49;11.75;;;7.30;;
29908;SDS011;36247;51.952;6.146;2023-06-24T08:44:15;9.48;;;6.20;;
29908;SDS011;36247;51.952;6.146;2023-06-24T08:46:42;9.98;;;7.22;;
29908;SDS011;36247;51.952;6.146;2023-06-24T08:51:49;8.18;;;5.57;;
29908;SDS011;36247;51.952;6.146;2023-06-24T08:54:24;9.13;;;4.97;;
29908;SDS011;36247;51.952;6.146;2023-06-24T08:56:51;6.10;;;4.90;;
29908;SDS011;36247;51.952;6.146;2023-06-24T08:59:17;9.05;;;4.97;;
29908;SDS011;36247;51.952;6.146;2023-06-24T09:01:49;6.05;;;4.70;;
29908;SDS011;36247;51.952;6.146;2023-06-24T09:04:15;6.90;;;4.90;;
29908;SDS011;36247;51.952;6.146;2023-06-24T09:06:42;6.78;;;5.25;;
29908;SDS011;36247;51.952;6.146;2023-06-24T09:09:17;10.15;;;4.70;;
29908;SDS011;36247;51.952;6.146;2023-06-24T09:11:56;6.75;;;4.32;;
29908;SDS011;36247;51.952;6.146;2023-06-24T09:14:26;7.90;;;4.95;;
29908;SDS011;36247;51.952;6.146;2023-06-24T09:16:58;7.07;;;5.20;;
29908;SDS011;36247;51.952;6.146;2023-06-24T09:19:29;9.70;;;4.88;;
29908;SDS011;36247;51.952;6.146;2023-06-24T09:22:05;6.05;;;4.20;;
29908;SDS011;36247;51.952;6.146;2023-06-24T09:24:32;6.55;;;4.35;;
29908;SDS011;36247;51.952;6.146;2023-06-24T09:26:58;7.25;;;4.70;;
29908;SDS011;36247;51.952;6.146;2023-06-24T09:29:25;8.20;;;4.30;;
29908;SDS011;36247;51.952;6.146;2023-06-24T09:31:52;6.10;;;4.55;;
29908;SDS011;36247;51.952;6.146;2023-06-24T09:34:19;6.22;;;3.97;;
29908;SDS011;36247;51.952;6.146;2023-06-24T09:36:47;8.70;;;3.88;;
29908;SDS011;36247;51.952;6.146;2023-06-24T09:39:17;7.18;;;4.20;;
29908;SDS011;36247;51.952;6.146;2023-06-24T09:41:42;6.50;;;4.32;;
29908;SDS011;36247;51.952;6.146;2023-06-24T09:44:09;7.07;;;5.25;;
29908;SDS011;36247;51.952;6.146;2023-06-24T09:46:37;6.85;;;4.90;;
29908;SDS011;36247;51.952;6.146;2023-06-24T09:49:04;5.70;;;4.53;;
29908;SDS011;36247;51.952;6.146;2023-06-24T09:51:32;5.75;;;4.65;;
29908;SDS011;36247;51.952;6.146;2023-06-24T09:54:07;5.72;;;4.45;;
29908;SDS011;36247;51.952;6.146;2023-06-24T09:56:37;5.25;;;4.47;;
29908;SDS011;36247;51.952;6.146;2023-06-24T09:59:17;6.43;;;4.68;;
29908;SDS011;36247;51.952;6.146;2023-06-24T10:01:47;5.05;;;3.80;;
29908;SDS011;36247;51.952;6.146;2023-06-24T10:04:17;5.82;;;4.18;;
29908;SDS011;36247;51.952;6.146;2023-06-24T10:06:43;5.13;;;4.63;;
29908;SDS011;36247;51.952;6.146;2023-06-24T10:09:11;4.85;;;4.25;;
29908;SDS011;36247;51.952;6.146;2023-06-24T10:11:39;5.32;;;4.63;;
29908;SDS011;36247;51.952;6.146;2023-06-24T10:14:08;6.55;;;4.53;;
29908;SDS011;36247;51.952;6.146;2023-06-24T10:16:37;8.68;;;4.90;;
29908;SDS011;36247;51.952;6.146;2023-06-24T10:19:03;6.30;;;4.57;;
29908;SDS011;36247;51.952;6.146;2023-06-24T10:24:31;8.02;;;4.90;;
29908;SDS011;36247;51.952;6.146;2023-06-24T10:27:15;5.30;;;4.47;;
29908;SDS011;36247;51.952;6.146;2023-06-24T10:29:46;5.72;;;4.63;;
29908;SDS011;36247;51.952;6.146;2023-06-24T10:32:13;6.13;;;4.55;;
29908;SDS011;36247;51.952;6.146;2023-06-24T10:34:39;6.13;;;4.80;;
29908;SDS011;36247;51.952;6.146;2023-06-24T10:39:53;7.10;;;5.57;;
29908;SDS011;36247;51.952;6.146;2023-06-24T10:47:46;7.35;;;5.85;;
29908;SDS011;36247;51.952;6.146;2023-06-24T10:50:19;9.95;;;6.88;;
29908;SDS011;36247;51.952;6.146;2023-06-24T10:52:49;7.80;;;5.80;;
29908;SDS011;36247;51.952;6.146;2023-06-24T10:55:21;9.05;;;5.88;;
29908;SDS011;36247;51.952;6.146;2023-06-24T10:57:48;9.90;;;5.88;;
29908;SDS011;36247;51.952;6.146;2023-06-24T11:00:14;6.47;;;5.78;;
29908;SDS011;36247;51.952;6.146;2023-06-24T11:02:42;7.80;;;6.05;;
29908;SDS011;36247;51.952;6.146;2023-06-24T11:05:11;7.18;;;6.45;;
29908;SDS011;36247;51.952;6.146;2023-06-24T11:07:37;9.60;;;5.70;;
29908;SDS011;36247;51.952;6.146;2023-06-24T11:10:09;7.38;;;5.40;;
29908;SDS011;36247;51.952;6.146;2023-06-24T11:12:38;7.25;;;5.30;;
29908;SDS011;36247;51.952;6.146;2023-06-24T11:15:09;8.80;;;6.00;;
29908;SDS011;36247;51.952;6.146;2023-06-24T11:17:39;9.25;;;6.53;;
29908;SDS011;36247;51.952;6.146;2023-06-24T11:20:08;10.20;;;7.35;;
29908;SDS011;36247;51.952;6.146;2023-06-24T11:22:37;12.77;;;7.45;;
29908;SDS011;36247;51.952;6.146;2023-06-24T11:25:15;9.20;;;6.72;;
29908;SDS011;36247;51.952;6.146;2023-06-24T11:27:43;8.20;;;6.65;;
29908;SDS011;36247;51.952;6.146;2023-06-24T11:30:08;9.52;;;7.47;;
29908;SDS011;36247;51.952;6.146;2023-06-24T11:32:38;9.43;;;6.50;;
29908;SDS011;36247;51.952;6.146;2023-06-24T11:35:09;6.97;;;6.15;;
29908;SDS011;36247;51.952;6.146;2023-06-24T11:37:42;6.65;;;5.85;;
29908;SDS011;36247;51.952;6.146;2023-06-24T11:40:09;7.45;;;5.22;;
29908;SDS011;36247;51.952;6.146;2023-06-24T11:42:39;6.50;;;5.25;;
29908;SDS011;36247;51.952;6.146;2023-06-24T11:45:14;6.90;;;5.28;;
29908;SDS011;36247;51.952;6.146;2023-06-24T11:47:44;7.15;;;5.70;;
29908;SDS011;36247;51.952;6.146;2023-06-24T11:50:12;7.13;;;5.68;;
29908;SDS011;36247;51.952;6.146;2023-06-24T11:52:38;6.50;;;5.90;;
29908;SDS011;36247;51.952;6.146;2023-06-24T11:55:16;7.28;;;5.50;;
29908;SDS011;36247;51.952;6.146;2023-06-24T12:02:56;6.85;;;5.32;;
29908;SDS011;36247;51.952;6.146;2023-06-24T12:05:27;7.85;;;5.50;;
29908;SDS011;36247;51.952;6.146;2023-06-24T12:07:54;8.25;;;6.03;;
29908;SDS011;36247;51.952;6.146;2023-06-24T12:10:22;9.23;;;5.50;;
29908;SDS011;36247;51.952;6.146;2023-06-24T12:12:48;9.75;;;6.25;;
29908;SDS011;36247;51.952;6.146;2023-06-24T12:15:13;7.68;;;5.22;;
29908;SDS011;36247;51.952;6.146;2023-06-24T12:17:41;6.30;;;5.22;;
29908;SDS011;36247;51.952;6.146;2023-06-24T12:20:07;8.02;;;5.03;;
29908;SDS011;36247;51.952;6.146;2023-06-24T12:22:37;5.57;;;5.05;;
29908;SDS011;36247;51.952;6.146;2023-06-24T12:25:03;7.18;;;5.45;;
29908;SDS011;36247;51.952;6.146;2023-06-24T12:27:29;6.32;;;5.60;;
29908;SDS011;36247;51.952;6.146;2023-06-24T12:29:55;7.22;;;5.00;;
29908;SDS011;36247;51.952;6.146;2023-06-24T12:32:20;5.38;;;4.82;;
29908;SDS011;36247;51.952;6.146;2023-06-24T12:34:46;5.72;;;5.13;;
29908;SDS011;36247;51.952;6.146;2023-06-24T12:37:11;6.25;;;5.63;;
29908;SDS011;36247;51.952;6.146;2023-06-24T12:39:37;6.38;;;4.75;;
29908;SDS011;36247;51.952;6.146;2023-06-24T12:42:03;6.10;;;4.63;;
29908;SDS011;36247;51.952;6.146;2023-06-24T12:44:28;8.55;;;4.97;;
29908;SDS011;36247;51.952;6.146;2023-06-24T12:46:54;6.75;;;5.07;;
29908;SDS011;36247;51.952;6.146;2023-06-24T12:49:19;5.22;;;4.20;;
29908;SDS011;36247;51.952;6.146;2023-06-24T12:51:45;5.97;;;4.80;;
29908;SDS011;36247;51.952;6.146;2023-06-24T12:54:12;7.50;;;5.30;;
29908;SDS011;36247;51.952;6.146;2023-06-24T12:56:37;16.95;;;5.40;;
29908;SDS011;36247;51.952;6.146;2023-06-24T12:59:03;4.97;;;4.40;;
29908;SDS011;36247;51.952;6.146;2023-06-24T13:01:28;5.88;;;5.05;;
29908;SDS011;36247;51.952;6.146;2023-06-24T13:03:54;6.20;;;5.18;;
29908;SDS011;36247;51.952;6.146;2023-06-24T13:06:22;7.68;;;4.47;;
29908;SDS011;36247;51.952;6.146;2023-06-24T13:08:48;5.38;;;4.68;;
29908;SDS011;36247;51.952;6.146;2023-06-24T13:11:13;5.10;;;4.57;;
29908;SDS011;36247;51.952;6.146;2023-06-24T13:13:42;4.57;;;4.18;;
29908;SDS011;36247;51.952;6.146;2023-06-24T13:16:08;6.28;;;5.20;;
29908;SDS011;36247;51.952;6.146;2023-06-24T13:18:34;5.97;;;4.68;;
29908;SDS011;36247;51.952;6.146;2023-06-24T13:20:59;5.20;;;4.30;;
29908;SDS011;36247;51.952;6.146;2023-06-24T13:23:24;4.70;;;4.30;;
29908;SDS011;36247;51.952;6.146;2023-06-24T13:25:50;5.32;;;4.85;;
29908;SDS011;36247;51.952;6.146;2023-06-24T13:28:16;4.97;;;4.47;;
29908;SDS011;36247;51.952;6.146;2023-06-24T13:30:42;5.22;;;4.50;;
29908;SDS011;36247;51.952;6.146;2023-06-24T13:33:08;5.07;;;4.18;;
29908;SDS011;36247;51.952;6.146;2023-06-24T13:35:38;6.15;;;4.78;;
29908;SDS011;36247;51.952;6.146;2023-06-24T13:38:03;5.85;;;4.68;;
29908;SDS011;36247;51.952;6.146;2023-06-24T13:40:29;6.45;;;4.80;;
29908;SDS011;36247;51.952;6.146;2023-06-24T13:42:56;7.57;;;5.07;;
29908;SDS011;36247;51.952;6.146;2023-06-24T13:45:21;6.18;;;4.68;;
29908;SDS011;36247;51.952;6.146;2023-06-24T13:47:47;5.47;;;4.88;;
29908;SDS011;36247;51.952;6.146;2023-06-24T13:50:13;5.35;;;4.70;;
29908;SDS011;36247;51.952;6.146;2023-06-24T13:52:38;5.28;;;4.25;;
29908;SDS011;36247;51.952;6.146;2023-06-24T13:55:07;5.50;;;4.47;;
29908;SDS011;36247;51.952;6.146;2023-06-24T13:57:33;5.38;;;4.43;;
29908;SDS011;36247;51.952;6.146;2023-06-24T13:59:59;6.38;;;4.80;;
29908;SDS011;36247;51.952;6.146;2023-06-24T14:02:24;5.93;;;4.80;;
29908;SDS011;36247;51.952;6.146;2023-06-24T14:04:50;6.30;;;4.88;;
29908;SDS011;36247;51.952;6.146;2023-06-24T14:07:16;5.60;;;4.88;;
29908;SDS011;36247;51.952;6.146;2023-06-24T14:09:42;6.15;;;5.20;;
29908;SDS011;36247;51.952;6.146;2023-06-24T14:12:08;6.32;;;5.55;;
29908;SDS011;36247;51.952;6.146;2023-06-24T14:14:37;5.20;;;4.70;;
29908;SDS011;36247;51.952;6.146;2023-06-24T14:17:04;7.03;;;4.57;;
29908;SDS011;36247;51.952;6.146;2023-06-24T14:19:34;5.10;;;4.57;;
29908;SDS011;36247;51.952;6.146;2023-06-24T14:22:00;5.35;;;4.45;;
29908;SDS011;36247;51.952;6.146;2023-06-24T14:24:26;5.03;;;4.47;;
29908;SDS011;36247;51.952;6.146;2023-06-24T14:26:51;6.53;;;4.82;;
29908;SDS011;36247;51.952;6.146;2023-06-24T14:29:17;5.10;;;4.60;;
29908;SDS011;36247;51.952;6.146;2023-06-24T14:31:43;4.95;;;4.40;;
29908;SDS011;36247;51.952;6.146;2023-06-24T14:34:10;5.45;;;4.95;;
29908;SDS011;36247;51.952;6.146;2023-06-24T14:36:37;6.15;;;4.63;;
29908;SDS011;36247;51.952;6.146;2023-06-24T14:39:03;6.93;;;4.68;;
29908;SDS011;36247;51.952;6.146;2023-06-24T14:41:29;6.40;;;4.95;;
29908;SDS011;36247;51.952;6.146;2023-06-24T14:43:54;6.43;;;4.82;;
29908;SDS011;36247;51.952;6.146;2023-06-24T14:46:20;5.72;;;5.13;;
29908;SDS011;36247;51.952;6.146;2023-06-24T14:48:45;9.02;;;5.03;;
29908;SDS011;36247;51.952;6.146;2023-06-24T14:51:14;5.60;;;5.00;;
29908;SDS011;36247;51.952;6.146;2023-06-24T14:53:41;5.57;;;4.57;;
29908;SDS011;36247;51.952;6.146;2023-06-24T14:56:07;5.18;;;4.68;;
29908;SDS011;36247;51.952;6.146;2023-06-24T14:58:33;5.57;;;4.43;;
29908;SDS011;36247;51.952;6.146;2023-06-24T15:00:58;5.50;;;5.00;;
29908;SDS011;36247;51.952;6.146;2023-06-24T15:03:23;5.38;;;4.88;;
29908;SDS011;36247;51.952;6.146;2023-06-24T15:05:49;4.80;;;4.30;;
29908;SDS011;36247;51.952;6.146;2023-06-24T15:08:15;6.18;;;4.80;;